Time;durP1;ratioP1;P1;durP2;ratioP2;P2;SDS_P1;SDS_P2;PMS_P1;PMS_P2;Temp;Humidity;BMP_temperature;BMP_pressure;BME280_temperature;BME280_humidity;BME280_pressure;Samples;Min_cycle;Max_cycle;Signal;HPM_P1;HPM_P2
2023/01/27 00:00:12;;;;;;;18.33;11.60;;;;;;;-1.72;100.00;150932.47;4987568;28;20465;-77
2023/01/27 00:02:42;;;;;;;18.10;11.40;;;;;;;-1.72;100.00;150933.72;4978337;28;20447;-77
2023/01/27 00:05:11;;;;;;;17.37;11.63;;;;;;;-1.65;100.00;150950.41;4993126;28;20805;-77
2023/01/27 00:07:38;;;;;;;19.03;12.13;;;;;;;-1.66;100.00;150947.81;4989183;28;20577;-77
2023/01/27 00:10:06;;;;;;;17.90;12.27;;;;;;;-1.66;100.00;150949.09;4998204;28;20489;-77
2023/01/27 00:15:19;;;;;;;21.13;13.33;;;;;;;-1.61;100.00;150960.63;4990531;28;20901;-76
2023/01/27 00:17:46;;;;;;;17.20;12.20;;;;;;;-1.56;100.00;150974.72;4991330;28;20463;-76
2023/01/27 00:20:12;;;;;;;18.03;12.13;;;;;;;-1.62;100.00;150959.38;4990210;28;20503;-76
2023/01/27 00:25:49;;;;;;;18.80;12.20;;;;;;;-1.64;100.00;150954.22;4986630;28;20452;-76
2023/01/27 00:28:21;;;;;;;17.13;11.87;;;;;;;-1.69;100.00;150941.41;4988704;28;20472;-76
2023/01/27 00:30:50;;;;;;;20.53;12.80;;;;;;;-1.59;100.00;150965.78;4991682;28;20450;-76
2023/01/27 00:33:25;;;;;;;18.67;12.00;;;;;;;-1.57;100.00;150972.19;4983832;28;20576;-76
2023/01/27 00:35:59;;;;;;;18.10;11.80;;;;;;;-1.62;100.00;150959.38;4975574;28;20452;-77
2023/01/27 00:38:27;;;;;;;19.27;11.37;;;;;;;-1.65;100.00;150950.41;4974179;28;20535;-76
2023/01/27 00:43:38;;;;;;;15.40;10.70;;;;;;;-1.66;100.00;150947.81;4997301;28;20545;-76
2023/01/27 00:46:06;;;;;;;19.30;12.30;;;;;;;-1.71;100.00;150935.00;4974389;28;20604;-76
2023/01/27 00:48:33;;;;;;;19.57;12.57;;;;;;;-1.72;100.00;150933.72;4987227;28;20560;-75
2023/01/27 00:50:59;;;;;;;18.33;11.70;;;;;;;-1.66;100.00;150949.09;4990066;28;20455;-76
2023/01/27 00:53:26;;;;;;;22.40;13.10;;;;;;;-1.72;100.00;150932.47;4981276;28;20568;-76
2023/01/27 00:55:53;;;;;;;20.43;13.23;;;;;;;-1.72;100.00;150933.72;4990483;28;20507;-76
2023/01/27 00:58:21;;;;;;;26.00;12.60;;;;;;;-1.74;100.00;150927.31;4979379;28;20867;-76
2023/01/27 01:00:49;;;;;;;20.20;13.23;;;;;;;-1.78;100.00;150918.38;4981229;28;20818;-76
2023/01/27 01:03:18;;;;;;;18.50;11.93;;;;;;;-1.77;100.00;150920.91;4986780;28;20483;-77
2023/01/27 01:05:45;;;;;;;17.47;11.37;;;;;;;-1.78;100.00;150918.38;4987844;28;20460;-77
2023/01/27 01:08:11;;;;;;;19.40;12.83;;;;;;;-1.68;100.00;150942.69;4977212;28;20451;-77
2023/01/27 01:10:38;;;;;;;22.30;12.20;;;;;;;-1.65;100.00;150950.41;4972625;28;20970;-76
2023/01/27 01:13:06;;;;;;;19.73;12.67;;;;;;;-1.63;100.00;150955.50;4978092;28;20476;-76
2023/01/27 01:15:35;;;;;;;19.70;13.30;;;;;;;-1.72;100.00;150933.72;5015105;28;20475;-76
2023/01/27 01:18:02;;;;;;;17.07;12.53;;;;;;;-1.74;100.00;150928.59;4991494;28;20446;-75
2023/01/27 01:20:30;;;;;;;22.83;12.53;;;;;;;-1.68;100.00;150942.69;4990569;28;20481;-76
2023/01/27 01:22:57;;;;;;;21.47;12.97;;;;;;;-1.61;100.00;150961.91;4988121;28;20496;-76
2023/01/27 01:25:24;;;;;;;21.00;12.53;;;;;;;-1.72;100.00;150933.72;4984325;28;20438;-76
2023/01/27 01:27:51;;;;;;;19.70;13.13;;;;;;;-1.69;100.00;150941.41;4985540;28;20465;-75
2023/01/27 01:30:18;;;;;;;23.30;13.73;;;;;;;-1.71;100.00;150936.28;4992891;28;20975;-77
2023/01/27 01:32:44;;;;;;;16.53;11.33;;;;;;;-1.69;100.00;150941.41;5014419;28;20513;-77
2023/01/27 01:35:11;;;;;;;20.50;13.10;;;;;;;-1.71;100.00;150936.28;4972111;28;20910;-77
2023/01/27 01:37:41;;;;;;;18.40;13.07;;;;;;;-1.71;100.00;150936.28;4993691;28;20879;-77
2023/01/27 01:40:11;;;;;;;24.33;13.70;;;;;;;-1.72;100.00;150933.72;4991183;28;20851;-77
2023/01/27 01:42:57;;;;;;;26.63;13.50;;;;;;;-1.68;100.00;150943.97;4990751;28;20461;-77
2023/01/27 01:45:45;;;;;;;22.43;13.00;;;;;;;-1.64;100.00;150952.97;4988965;28;20461;-77
2023/01/27 01:48:18;;;;;;;22.40;14.33;;;;;;;-1.67;100.00;150946.56;4975982;28;20471;-77
2023/01/27 01:50:48;;;;;;;18.33;12.73;;;;;;;-1.64;100.00;150954.22;4976675;28;20521;-87
2023/01/27 01:53:16;;;;;;;23.47;14.60;;;;;;;-1.70;100.00;150938.88;4991200;28;20467;-87
2023/01/27 01:55:43;;;;;;;25.03;14.90;;;;;;;-1.78;100.00;150917.09;4987929;28;20551;-85
2023/01/27 01:58:12;;;;;;;23.50;13.53;;;;;;;-1.83;100.00;150904.28;4991116;28;20456;-87
2023/01/27 02:00:39;;;;;;;28.20;16.20;;;;;;;-1.80;100.00;150913.22;4982449;28;20828;-87
2023/01/27 02:03:06;;;;;;;23.47;14.70;;;;;;;-1.71;100.00;150936.28;4986277;28;20500;-87
2023/01/27 02:05:38;;;;;;;23.80;14.90;;;;;;;-1.73;100.00;150931.19;4985702;28;20503;-87
2023/01/27 02:08:09;;;;;;;24.10;14.53;;;;;;;-1.69;100.00;150940.13;4988916;28;20472;-87
2023/01/27 02:10:38;;;;;;;24.50;12.77;;;;;;;-1.67;100.00;150946.56;4986805;28;20550;-87
2023/01/27 02:13:04;;;;;;;24.00;15.33;;;;;;;-1.82;100.00;150908.09;4987670;28;20546;-87
2023/01/27 02:15:31;;;;;;;22.23;13.47;;;;;;;-1.78;100.00;150918.38;4987816;28;20459;-86
2023/01/27 02:17:59;;;;;;;24.20;15.00;;;;;;;-1.77;100.00;150920.91;4990827;28;20480;-87
2023/01/27 02:20:34;;;;;;;23.80;13.67;;;;;;;-1.80;100.00;150913.22;4990232;28;20452;-87
2023/01/27 02:23:05;;;;;;;24.30;13.80;;;;;;;-1.81;100.00;150909.38;5020899;28;20814;-87
2023/01/27 02:25:42;;;;;;;25.10;14.00;;;;;;;-1.83;100.00;150904.28;4990006;28;20540;-85
2023/01/27 02:28:09;;;;;;;22.20;14.13;;;;;;;-1.82;100.00;150908.09;4989670;28;20945;-86
2023/01/27 02:30:36;;;;;;;24.80;12.87;;;;;;;-1.84;100.00;150902.97;4988450;28;20448;-87
2023/01/27 02:33:09;;;;;;;18.73;12.27;;;;;;;-1.86;100.00;150897.88;4982947;28;20481;-87
2023/01/27 02:35:38;;;;;;;24.57;15.97;;;;;;;-1.80;100.00;150913.22;4969880;28;20476;-87
2023/01/27 02:38:07;;;;;;;24.00;14.27;;;;;;;-1.79;100.00;150914.50;4958257;28;20569;-87
2023/01/27 02:40:34;;;;;;;19.50;12.40;;;;;;;-1.83;100.00;150905.56;4982732;28;20490;-87
2023/01/27 02:43:04;;;;;;;20.63;13.43;;;;;;;-1.89;100.00;150891.47;4981398;28;20537;-86
2023/01/27 02:45:31;;;;;;;24.00;13.87;;;;;;;-1.79;100.00;150915.78;4985973;28;20559;-87
2023/01/27 02:47:58;;;;;;;22.67;14.10;;;;;;;-1.82;100.00;150908.09;4965183;28;20466;-86
2023/01/27 02:50:25;;;;;;;24.53;15.13;;;;;;;-1.84;100.00;150902.97;4973313;28;20456;-86
2023/01/27 02:52:52;;;;;;;19.20;12.70;;;;;;;-1.87;100.00;150895.28;4986615;28;20913;-86
2023/01/27 02:55:18;;;;;;;17.93;12.97;;;;;;;-1.81;100.00;150910.69;4967695;28;20504;-86
2023/01/27 02:57:45;;;;;;;22.57;13.33;;;;;;;-1.87;100.00;150895.28;4979772;28;20449;-86
2023/01/27 03:00:52;;;;;;;18.80;13.00;;;;;;;-1.93;100.00;150881.19;4932935;29;20589;-86
2023/01/27 03:03:18;;;;;;;16.87;11.10;;;;;;;-1.88;100.00;150892.75;4935210;29;20553;-86
2023/01/27 03:05:46;;;;;;;20.30;11.47;;;;;;;-1.92;100.00;150883.78;4948286;28;20467;-86
2023/01/27 03:08:13;;;;;;;21.37;11.60;;;;;;;-1.88;100.00;150892.75;4965891;28;20461;-86
2023/01/27 03:10:41;;;;;;;20.23;11.93;;;;;;;-1.89;100.00;150891.47;4975912;28;20460;-86
2023/01/27 03:13:08;;;;;;;19.90;11.83;;;;;;;-1.88;100.00;150894.00;4976082;28;20849;-86
2023/01/27 03:18:24;;;;;;;17.43;10.57;;;;;;;-1.97;100.00;150870.97;5006687;28;20474;-86
2023/01/27 03:21:00;;;;;;;17.10;11.40;;;;;;;-1.95;100.00;150874.78;4974776;28;20466;-86
2023/01/27 03:23:27;;;;;;;18.03;12.00;;;;;;;-1.95;100.00;150874.78;4990098;28;20465;-86
2023/01/27 03:25:54;;;;;;;19.97;11.20;;;;;;;-1.90;100.00;150887.59;4990276;28;20960;-86
2023/01/27 03:28:21;;;;;;;18.93;11.30;;;;;;;-1.85;100.00;150900.41;4992381;28;20463;-87
2023/01/27 03:31:01;;;;;;;19.37;11.80;;;;;;;-1.85;100.00;150900.41;4974700;28;20463;-87
2023/01/27 03:33:41;;;;;;;17.17;11.27;;;;;;;-1.83;100.00;150906.81;4990759;28;20832;-86
2023/01/27 03:47:23;;;;;;;24.70;13.33;;;;;;;-1.84;100.00;150902.97;4994215;28;20460;-85
2023/01/27 03:49:51;;;;;;;18.50;11.30;;;;;;;-1.87;100.00;150895.28;4993137;28;20432;-87
2023/01/27 03:52:17;;;;;;;23.90;11.80;;;;;;;-1.90;100.00;150887.59;4993224;28;20505;-87
2023/01/27 03:54:44;;;;;;;17.50;11.50;;;;;;;-1.90;100.00;150888.88;4993508;28;20558;-87
2023/01/27 03:57:11;;;;;;;18.77;11.30;;;;;;;-1.93;100.00;150879.91;4996743;28;20977;-87
2023/01/27 03:59:37;;;;;;;16.40;10.40;;;;;;;-1.90;100.00;150888.88;4989352;28;20557;-87
2023/01/27 04:07:36;;;;;;;21.77;12.40;;;;;;;-1.82;100.00;150908.09;5012817;28;20464;-86
2023/01/27 04:10:03;;;;;;;21.73;12.07;;;;;;;-1.83;100.00;150904.28;4975353;28;20444;-86
2023/01/27 04:12:29;;;;;;;17.17;11.67;;;;;;;-1.86;100.00;150897.88;4995541;28;20518;-87
2023/01/27 04:14:55;;;;;;;16.83;10.97;;;;;;;-1.90;100.00;150888.88;4985486;28;20454;-86
2023/01/27 04:17:22;;;;;;;21.70;12.63;;;;;;;-1.85;100.00;150901.69;4984477;28;20235;-86
2023/01/27 04:19:49;;;;;;;21.50;12.03;;;;;;;-1.81;100.00;150910.69;4991948;28;20868;-86
2023/01/27 04:22:16;;;;;;;16.03;11.50;;;;;;;-1.88;100.00;150892.75;4990595;28;20484;-86
2023/01/27 04:24:44;;;;;;;19.23;11.73;;;;;;;-1.91;100.00;150885.06;4990377;28;20456;-86
2023/01/27 04:27:14;;;;;;;17.77;11.77;;;;;;;-1.85;100.00;150901.69;4990181;28;20485;-87
2023/01/27 04:29:41;;;;;;;22.50;12.67;;;;;;;-1.81;100.00;150909.38;4993194;28;20449;-86
2023/01/27 04:32:10;;;;;;;17.57;12.07;;;;;;;-1.87;100.00;150896.59;4989112;28;20475;-86
2023/01/27 04:34:37;;;;;;;14.20;10.30;;;;;;;-1.83;100.00;150906.81;4992562;28;20826;-87
2023/01/27 04:37:05;;;;;;;17.70;11.77;;;;;;;-1.80;100.00;150913.22;4989378;28;20951;-86
2023/01/27 04:39:32;;;;;;;17.63;11.40;;;;;;;-1.78;100.00;150917.09;4991433;28;20809;-86
2023/01/27 04:42:00;;;;;;;18.07;11.73;;;;;;;-1.80;100.00;150911.97;4996063;28;20467;-87
2023/01/27 04:44:29;;;;;;;18.23;10.37;;;;;;;-1.85;100.00;150901.69;4986284;28;20914;-86
2023/01/27 04:46:56;;;;;;;18.67;12.70;;;;;;;-1.84;100.00;150902.97;4994032;28;20467;-86
2023/01/27 04:49:25;;;;;;;19.83;10.87;;;;;;;-1.84;100.00;150902.97;4993674;28;20544;-87
2023/01/27 04:51:52;;;;;;;15.33;11.83;;;;;;;-1.83;100.00;150905.56;4980880;28;20456;-86
2023/01/27 04:54:18;;;;;;;22.10;12.20;;;;;;;-1.82;100.00;150908.09;4991230;28;20686;-86
2023/01/27 04:56:55;;;;;;;21.43;13.40;;;;;;;-1.87;100.00;150895.28;4998729;28;20452;-86
2023/01/27 04:59:23;;;;;;;19.70;12.47;;;;;;;-1.84;100.00;150902.97;5008993;28;20432;-86
2023/01/27 05:01:50;;;;;;;19.07;12.10;;;;;;;-1.81;100.00;150910.69;4969717;28;20453;-86
2023/01/27 05:04:17;;;;;;;21.60;12.73;;;;;;;-1.78;100.00;150918.38;5001568;28;21107;-87
2023/01/27 05:06:44;;;;;;;19.50;12.20;;;;;;;-1.79;100.00;150915.78;4990176;28;20552;-86
2023/01/27 05:09:10;;;;;;;18.50;11.43;;;;;;;-1.84;100.00;150902.97;4985750;28;20499;-86
2023/01/27 05:11:37;;;;;;;17.60;11.37;;;;;;;-1.81;100.00;150909.38;4992418;28;20506;-87
2023/01/27 05:14:04;;;;;;;20.60;12.10;;;;;;;-1.78;100.00;150918.38;4993721;28;20479;-87
2023/01/27 05:16:32;;;;;;;15.93;11.63;;;;;;;-1.77;100.00;150920.91;4990677;28;20541;-87
2023/01/27 05:18:58;;;;;;;19.67;11.50;;;;;;;-1.80;100.00;150913.22;4981044;28;20458;-87
2023/01/27 05:21:27;;;;;;;18.07;11.87;;;;;;;-1.79;100.00;150914.50;4993252;28;20452;-87
2023/01/27 05:23:53;;;;;;;19.57;13.03;;;;;;;-1.84;100.00;150902.97;4990778;28;20907;-87
2023/01/27 05:26:22;;;;;;;17.83;12.83;;;;;;;-1.85;100.00;150900.41;4989694;28;20453;-87
2023/01/27 05:28:49;;;;;;;20.97;13.90;;;;;;;-1.79;100.00;150914.50;4981769;28;20789;-87
2023/01/27 05:31:18;;;;;;;20.83;14.70;;;;;;;-1.79;100.00;150914.50;4982711;28;20515;-88
2023/01/27 05:33:47;;;;;;;21.27;14.90;;;;;;;-1.82;100.00;150908.09;4991675;28;20820;-87
2023/01/27 05:36:15;;;;;;;21.10;14.33;;;;;;;-1.80;100.00;150913.22;4970288;28;20449;-86
2023/01/27 05:38:42;;;;;;;22.87;15.07;;;;;;;-1.85;100.00;150900.41;4988439;28;20457;-87
2023/01/27 05:41:10;;;;;;;23.70;14.73;;;;;;;-1.83;100.00;150905.56;4992079;28;20513;-87
2023/01/27 05:43:38;;;;;;;21.37;13.87;;;;;;;-1.85;100.00;150900.41;4991426;28;20983;-87
2023/01/27 05:46:07;;;;;;;22.27;12.53;;;;;;;-1.88;100.00;150892.75;4989524;28;20548;-87
2023/01/27 05:48:35;;;;;;;22.80;14.90;;;;;;;-1.84;100.00;150902.97;4990012;28;20492;-87
2023/01/27 05:51:07;;;;;;;22.93;15.20;;;;;;;-1.84;100.00;150902.97;4988039;28;20544;-87
2023/01/27 05:53:35;;;;;;;20.70;12.90;;;;;;;-1.80;100.00;150913.22;4987935;28;20504;-87
2023/01/27 05:56:02;;;;;;;24.43;14.30;;;;;;;-1.79;100.00;150915.78;4987490;28;20859;-87
2023/01/27 05:58:29;;;;;;;20.07;14.20;;;;;;;-1.68;100.00;150943.97;4990585;28;20455;-87
2023/01/27 06:00:56;;;;;;;21.50;13.70;;;;;;;-1.77;100.00;150920.91;4990991;28;20449;-87
2023/01/27 06:03:22;;;;;;;21.37;14.10;;;;;;;-1.80;100.00;150911.97;4982913;28;20466;-87
2023/01/27 06:05:54;;;;;;;23.37;13.50;;;;;;;-1.79;100.00;150915.78;4981122;28;20497;-87
2023/01/27 06:08:23;;;;;;;21.90;14.50;;;;;;;-1.78;100.00;150918.38;4990324;28;20797;-87
2023/01/27 06:10:50;;;;;;;20.20;12.00;;;;;;;-1.79;100.00;150915.78;4969002;28;20460;-87
2023/01/27 06:13:18;;;;;;;21.63;12.50;;;;;;;-1.79;100.00;150915.78;4985989;28;20457;-87
2023/01/27 06:15:46;;;;;;;21.00;13.20;;;;;;;-1.78;100.00;150918.38;4986998;28;20518;-87
2023/01/27 06:18:13;;;;;;;19.60;12.40;;;;;;;-1.82;100.00;150908.09;4986303;28;20458;-87
2023/01/27 06:20:40;;;;;;;21.00;12.40;;;;;;;-1.79;100.00;150915.78;5001424;28;20599;-87
2023/01/27 06:23:07;;;;;;;21.60;11.27;;;;;;;-1.80;100.00;150913.22;4987579;28;20964;-87
2023/01/27 06:25:39;;;;;;;18.23;11.87;;;;;;;-1.81;100.00;150910.69;4989034;28;20849;-87
2023/01/27 06:28:06;;;;;;;18.67;11.53;;;;;;;-1.82;100.00;150908.09;4987123;28;20823;-87
2023/01/27 06:30:33;;;;;;;24.03;14.20;;;;;;;-1.73;100.00;150931.19;4986577;28;20457;-87
2023/01/27 06:33:00;;;;;;;19.73;12.87;;;;;;;-1.78;100.00;150918.38;4983284;28;20458;-87
2023/01/27 06:35:27;;;;;;;20.47;12.60;;;;;;;-1.79;100.00;150915.78;4991978;28;20510;-87
2023/01/27 06:37:54;;;;;;;20.23;14.17;;;;;;;-1.73;100.00;150929.88;4987594;28;20456;-87
2023/01/27 06:40:21;;;;;;;20.30;14.10;;;;;;;-1.71;100.00;150935.00;4987216;28;20458;-87
2023/01/27 06:42:49;;;;;;;20.70;12.80;;;;;;;-1.70;100.00;150938.88;4995467;28;20456;-87
2023/01/27 06:45:15;;;;;;;19.33;13.93;;;;;;;-1.65;100.00;150951.69;4986159;28;20576;-87
2023/01/27 06:47:42;;;;;;;19.37;12.43;;;;;;;-1.72;100.00;150933.72;4983705;28;20465;-87
2023/01/27 06:50:10;;;;;;;25.30;15.17;;;;;;;-1.70;100.00;150938.88;4984305;28;20463;-87
2023/01/27 06:52:37;;;;;;;22.77;13.87;;;;;;;-1.74;100.00;150928.59;4986044;28;20453;-86
2023/01/27 06:55:05;;;;;;;21.53;13.63;;;;;;;-1.75;100.00;150926.06;4986417;28;20505;-87
2023/01/27 06:57:31;;;;;;;19.03;14.83;;;;;;;-1.73;100.00;150931.19;4986433;28;20523;-87
2023/01/27 06:59:59;;;;;;;22.17;15.03;;;;;;;-1.72;100.00;150932.47;4985095;28;20456;-87
2023/01/27 07:02:26;;;;;;;22.53;13.50;;;;;;;-1.69;100.00;150940.13;5004423;28;20810;-87
2023/01/27 07:04:53;;;;;;;22.60;13.47;;;;;;;-1.69;100.00;150941.41;4989281;28;21043;-87
2023/01/27 07:07:19;;;;;;;19.53;13.30;;;;;;;-1.66;100.00;150949.09;5003466;28;20459;-87
2023/01/27 07:09:46;;;;;;;21.33;14.87;;;;;;;-1.67;100.00;150946.56;4979761;28;20444;-87
2023/01/27 07:12:15;;;;;;;20.43;14.40;;;;;;;-1.70;100.00;150938.88;4987270;28;20464;-87
2023/01/27 07:14:42;;;;;;;21.03;13.13;;;;;;;-1.74;100.00;150928.59;4984093;28;20488;-87
2023/01/27 07:17:10;;;;;;;20.70;13.47;;;;;;;-1.65;100.00;150951.69;4981346;28;20495;-87
2023/01/27 07:19:37;;;;;;;21.13;13.90;;;;;;;-1.65;100.00;150951.69;4982374;28;20457;-87
2023/01/27 07:22:04;;;;;;;25.83;15.33;;;;;;;-1.66;100.00;150947.81;4987083;28;20570;-87
2023/01/27 07:24:30;;;;;;;23.70;13.50;;;;;;;-1.68;100.00;150943.97;4981744;28;20489;-87
2023/01/27 07:26:57;;;;;;;20.53;12.70;;;;;;;-1.68;100.00;150942.69;4980072;28;20801;-87
2023/01/27 07:29:24;;;;;;;21.67;13.47;;;;;;;-1.68;100.00;150942.69;4982743;28;20541;-87
2023/01/27 07:31:50;;;;;;;18.90;13.40;;;;;;;-1.70;100.00;150938.88;4982572;28;20556;-87
2023/01/27 07:34:18;;;;;;;23.93;12.73;;;;;;;-1.71;100.00;150935.00;4987151;28;20492;-87
2023/01/27 07:36:45;;;;;;;18.67;13.57;;;;;;;-1.70;100.00;150938.88;4985414;28;20842;-86
2023/01/27 07:39:12;;;;;;;20.07;12.10;;;;;;;-1.63;100.00;150956.78;4984573;28;20459;-87
2023/01/27 07:41:38;;;;;;;20.53;13.00;;;;;;;-1.65;100.00;150951.69;4966923;28;20452;-87
2023/01/27 07:44:05;;;;;;;21.70;14.20;;;;;;;-1.66;100.00;150949.09;4982928;28;20504;-87
2023/01/27 07:46:42;;;;;;;21.17;13.20;;;;;;;-1.68;100.00;150942.69;4965377;28;20597;-87
2023/01/27 07:49:11;;;;;;;21.43;12.40;;;;;;;-1.68;100.00;150942.69;5000877;28;20451;-87
2023/01/27 07:51:39;;;;;;;22.30;15.03;;;;;;;-1.64;100.00;150954.22;4983800;28;21110;-88
2023/01/27 07:54:06;;;;;;;21.07;12.57;;;;;;;-1.55;100.00;150977.28;4983569;28;20476;-87
2023/01/27 07:56:35;;;;;;;18.77;13.27;;;;;;;-1.57;100.00;150970.91;4984715;28;20833;-87
2023/01/27 07:59:04;;;;;;;23.67;14.70;;;;;;;-1.70;100.00;150938.88;4982824;28;20460;-86
2023/01/27 08:01:31;;;;;;;21.40;13.40;;;;;;;-1.67;100.00;150945.28;4986324;28;20452;-85
2023/01/27 08:03:58;;;;;;;21.00;12.30;;;;;;;-1.61;100.00;150961.91;4985503;28;20451;-87
2023/01/27 08:06:25;;;;;;;23.90;15.00;;;;;;;-1.61;100.00;150960.63;4987690;28;20457;-87
2023/01/27 08:08:53;;;;;;;28.77;14.47;;;;;;;-1.66;100.00;150949.09;4970212;28;20464;-86
2023/01/27 08:11:20;;;;;;;21.73;12.70;;;;;;;-1.68;100.00;150943.97;4987943;28;20451;-87
2023/01/27 08:13:47;;;;;;;23.57;13.40;;;;;;;-1.64;100.00;150954.22;4987199;28;20959;-87
2023/01/27 08:16:15;;;;;;;19.93;11.50;;;;;;;-1.61;100.00;150961.91;5003317;28;20964;-87
2023/01/27 08:18:42;;;;;;;17.07;11.10;;;;;;;-1.64;100.00;150952.97;4987640;28;20567;-87
2023/01/27 08:21:10;;;;;;;19.10;12.70;;;;;;;-1.58;100.00;150969.59;4989627;28;20456;-87
2023/01/27 08:23:37;;;;;;;18.13;11.20;;;;;;;-1.68;100.00;150943.97;4990399;28;20453;-87
2023/01/27 08:26:06;;;;;;;16.17;10.40;;;;;;;-1.65;100.00;150951.69;4988926;28;20564;-87
2023/01/27 08:28:35;;;;;;;18.00;11.20;;;;;;;-1.71;100.00;150936.28;4983184;28;20711;-87
2023/01/27 08:31:06;;;;;;;21.27;11.87;;;;;;;-1.70;100.00;150938.88;4981584;28;20464;-86
2023/01/27 08:33:33;;;;;;;16.60;9.43;;;;;;;-1.74;100.00;150928.59;4988959;28;20460;-87
2023/01/27 08:36:04;;;;;;;14.20;9.60;;;;;;;-1.70;100.00;150937.59;4982400;28;20806;-87
2023/01/27 08:38:30;;;;;;;14.77;11.00;;;;;;;-1.68;100.00;150943.97;4979967;28;20543;-86
2023/01/27 08:40:57;;;;;;;16.70;11.10;;;;;;;-1.70;100.00;150937.59;4989690;28;20519;-87
2023/01/27 08:43:25;;;;;;;15.40;10.33;;;;;;;-1.69;100.00;150941.41;4989433;28;20476;-87
2023/01/27 08:45:52;;;;;;;15.57;10.67;;;;;;;-1.73;100.00;150931.19;4990621;28;20891;-87
2023/01/27 08:48:20;;;;;;;17.33;10.97;;;;;;;-1.71;100.00;150936.28;4988318;28;20873;-87
2023/01/27 08:50:48;;;;;;;16.53;10.77;;;;;;;-1.71;100.00;150936.28;4988383;28;20453;-87
2023/01/27 08:53:19;;;;;;;15.57;10.23;;;;;;;-1.65;100.00;150950.41;4986037;28;20511;-87
2023/01/27 08:55:46;;;;;;;17.50;11.20;;;;;;;-1.67;100.00;150945.28;5001160;28;20487;-87
2023/01/27 08:58:13;;;;;;;15.30;10.83;;;;;;;-1.67;100.00;150946.56;4972851;28;20464;-88
2023/01/27 09:00:41;;;;;;;15.70;11.00;;;;;;;-1.66;100.00;150949.09;4984522;28;20455;-87
2023/01/27 09:03:08;;;;;;;17.97;10.23;;;;;;;-1.70;100.00;150938.88;4987382;28;20491;-88
2023/01/27 09:05:35;;;;;;;20.37;11.30;;;;;;;-1.71;100.00;150936.28;4985540;28;20979;-88
2023/01/27 09:08:02;;;;;;;16.90;9.43;;;;;;;-1.67;100.00;150946.56;4987054;28;20488;-87
2023/01/27 09:10:30;;;;;;;17.83;10.13;;;;;;;-1.66;100.00;150947.81;4979878;28;20905;-87
2023/01/27 09:12:57;;;;;;;16.70;11.17;;;;;;;-1.67;100.00;150946.56;4981283;28;20799;-87
2023/01/27 09:15:24;;;;;;;17.80;9.30;;;;;;;-1.71;100.00;150936.28;4982034;28;20567;-88
2023/01/27 09:17:52;;;;;;;15.50;10.00;;;;;;;-1.67;100.00;150946.56;4989037;28;20464;-88
2023/01/27 09:20:18;;;;;;;13.87;10.20;;;;;;;-1.64;100.00;150954.22;4987939;28;20457;-88
2023/01/27 09:22:45;;;;;;;17.30;12.03;;;;;;;-1.63;100.00;150955.50;4987180;28;20987;-89
2023/01/27 09:25:14;;;;;;;18.33;10.10;;;;;;;-1.69;100.00;150941.41;4983427;28;20463;-88
2023/01/27 09:27:40;;;;;;;16.70;11.23;;;;;;;-1.72;100.00;150933.72;4968689;28;20855;-88
2023/01/27 09:30:15;;;;;;;16.67;9.47;;;;;;;-1.64;100.00;150954.22;4980952;28;20547;-88
2023/01/27 09:32:42;;;;;;;14.57;9.73;;;;;;;-1.67;100.00;150946.56;4983227;28;20459;-88
2023/01/27 09:35:10;;;;;;;17.93;10.07;;;;;;;-1.67;100.00;150946.56;4986834;28;20469;-88
2023/01/27 09:37:39;;;;;;;16.57;10.77;;;;;;;-1.69;100.00;150940.13;4986885;28;20503;-88
2023/01/27 09:40:12;;;;;;;19.03;11.87;;;;;;;-1.66;100.00;150949.09;4982788;28;20537;-88
2023/01/27 09:43:01;;;;;;;18.83;10.53;;;;;;;-1.64;100.00;150952.97;4966711;28;20466;-89
2023/01/27 09:45:36;;;;;;;17.80;10.63;;;;;;;-1.57;100.00;150972.19;4977403;28;20457;-88
2023/01/27 09:48:25;;;;;;;22.07;11.60;;;;;;;-1.55;100.00;150977.28;4987925;28;20546;-88
2023/01/27 09:50:59;;;;;;;18.00;10.70;;;;;;;-1.60;100.00;150964.50;5004349;28;20456;-89
2023/01/27 09:53:47;;;;;;;16.50;10.33;;;;;;;-1.60;100.00;150964.50;4989089;28;20555;-89
2023/01/27 09:56:20;;;;;;;21.30;11.20;;;;;;;-1.61;100.00;150960.63;4981810;28;20861;-88
2023/01/27 09:59:00;;;;;;;18.80;11.07;;;;;;;-1.63;100.00;150956.78;5004209;28;20841;-89
2023/01/27 10:01:30;;;;;;;20.90;10.90;;;;;;;-1.56;100.00;150974.72;4988618;28;20576;-88
2023/01/27 10:04:21;;;;;;;22.03;10.80;;;;;;;-1.62;100.00;150959.38;4982566;28;21209;-89
2023/01/27 10:07:03;;;;;;;22.13;11.73;;;;;;;-1.66;100.00;150949.09;4988414;28;20550;-89
2023/01/27 10:09:45;;;;;;;20.83;12.10;;;;;;;-1.62;100.00;150959.38;4982331;28;20537;-89
2023/01/27 10:12:23;;;;;;;19.20;11.30;;;;;;;-1.68;100.00;150942.69;4981878;28;20461;-89
2023/01/27 10:14:56;;;;;;;20.40;12.67;;;;;;;-1.68;100.00;150943.97;4970142;28;20895;-89
2023/01/27 10:17:35;;;;;;;22.20;11.50;;;;;;;-1.58;100.00;150969.59;4987828;28;20824;-89
2023/01/27 10:20:21;;;;;;;22.47;11.20;;;;;;;-1.54;100.00;150979.88;4985271;28;20455;-89
2023/01/27 10:22:57;;;;;;;19.77;10.73;;;;;;;-1.52;100.00;150985.00;4981985;28;20469;-89
2023/01/27 10:25:30;;;;;;;19.10;11.50;;;;;;;-1.58;100.00;150969.59;4985078;28;20449;-89
2023/01/27 10:27:58;;;;;;;16.10;10.40;;;;;;;-1.55;100.00;150976.00;4983496;28;20463;-89
2023/01/27 10:30:30;;;;;;;19.27;10.50;;;;;;;-1.48;100.00;150995.22;4982839;28;20821;-89
2023/01/27 10:33:00;;;;;;;14.87;9.77;;;;;;;-1.39;100.00;151018.31;4987272;28;20555;-89
2023/01/27 10:35:31;;;;;;;20.60;11.00;;;;;;;-1.45;100.00;151001.63;4979671;28;20526;-89
2023/01/27 10:38:07;;;;;;;14.50;8.60;;;;;;;-1.40;100.00;151015.72;4988595;28;20468;-89
2023/01/27 10:40:40;;;;;;;15.67;9.27;;;;;;;-1.31;100.00;151037.53;4980942;28;20449;-89
2023/01/27 10:43:11;;;;;;;17.00;10.07;;;;;;;-1.42;100.00;151010.63;4987699;28;20795;-89
2023/01/27 10:45:41;;;;;;;15.67;9.53;;;;;;;-1.40;100.00;151014.44;4989013;28;20533;-89
2023/01/27 10:48:20;;;;;;;16.50;8.40;;;;;;;-1.40;100.00;151014.44;4981538;28;20482;-89
2023/01/27 10:50:50;;;;;;;15.77;8.97;;;;;;;-1.30;100.00;151041.34;4987895;28;20449;-90
2023/01/27 10:53:22;;;;;;;13.77;9.13;;;;;;;-1.29;100.00;151042.66;4986585;28;21013;-89
2023/01/27 10:55:54;;;;;;;14.57;9.17;;;;;;;-1.24;100.00;151056.75;4964415;28;20483;-89
2023/01/27 10:58:30;;;;;;;14.77;9.33;;;;;;;-1.20;100.00;151065.72;4982826;28;20488;-89
2023/01/27 11:00:57;;;;;;;15.00;9.43;;;;;;;-1.16;100.00;151074.66;4982935;28;20535;-89
2023/01/27 11:03:26;;;;;;;15.90;8.70;;;;;;;-1.13;100.00;151083.66;4984468;28;20457;-89
2023/01/27 11:05:55;;;;;;;15.10;9.40;;;;;;;-1.13;100.00;151082.38;4987931;28;20531;-89
2023/01/27 11:08:25;;;;;;;13.30;8.33;;;;;;;-1.11;100.00;151088.78;4984311;28;20460;-89
2023/01/27 11:13:38;;;;;;;14.13;7.60;;;;;;;-1.16;100.00;151074.66;4981383;28;20457;-90
2023/01/27 11:16:06;;;;;;;15.43;9.33;;;;;;;-1.14;100.00;151079.84;4985446;28;21020;-89
2023/01/27 11:18:36;;;;;;;14.63;8.00;;;;;;;-1.18;100.00;151070.84;4988201;28;20562;-89
2023/01/27 11:21:05;;;;;;;14.23;8.47;;;;;;;-1.12;100.00;151086.25;4980290;28;20477;-89
2023/01/27 11:23:38;;;;;;;15.33;8.90;;;;;;;-1.08;100.00;151096.47;4987591;28;20837;-89
2023/01/27 11:26:10;;;;;;;13.40;8.90;;;;;;;-1.08;100.00;151095.19;4982619;28;20441;-89
2023/01/27 11:28:42;;;;;;;13.43;8.37;;;;;;;-1.14;100.00;151079.84;4984553;28;20580;-89
2023/01/27 11:31:15;;;;;;;16.43;8.83;;;;;;;-1.11;100.00;151088.78;4990804;28;20442;-89
2023/01/27 11:33:50;;;;;;;11.87;7.97;;;;;;;-1.07;100.00;151097.78;4985513;28;20825;-88
2023/01/27 11:36:17;;;;;;;16.47;8.97;;;;;;;-1.08;100.00;151095.19;4989619;28;20543;-87
2023/01/27 11:38:45;;;;;;;11.60;6.93;;;;;;;-1.13;100.00;151083.66;4977750;28;20448;-88
2023/01/27 11:41:12;;;;;;;14.27;9.00;;;;;;;-1.05;100.00;151102.88;4992793;28;20776;-89